N34HB EGTK-EGGP
Flight info
| Callsign | N34HB |
|---|---|
| Flight time | 0h 36m |
| Altitude | 23000 |
| Route | IXURA DCT DTY/N0441F220 Y53 SAPCO N57 TNT |
| Aircraft | C700/M-BDE1E2E3FGHJ1J3J4J7P2RWXYZ/LB2D1G1 |
Departure
| Time | 2026-05-05 15:42 |
|---|---|
| Airport | London Oxford Airport (EGTK) |
Arrival
| Time | 2026-05-05 16:19 |
|---|---|
| Airport | Liverpool John Lennon Airport (EGGP) |
| Time | Latitude | Longitude | Altitude | Speed | Heading |
|---|---|---|---|---|---|
| 2026-05-05 15:19 | 51.83501 | -1.31282 | 263 ft | 0 kts | 275° |
| 2026-05-05 15:38 | 51.83502 | -1.31295 | 263 ft | 4 kts | 275° |
| 2026-05-05 15:38 | 51.83494 | -1.31340 | 263 ft | 6 kts | 246° |
| 2026-05-05 15:38 | 51.83487 | -1.31390 | 263 ft | 8 kts | 268° |
| 2026-05-05 15:39 | 51.83465 | -1.31447 | 263 ft | 10 kts | 212° |
| 2026-05-05 15:39 | 51.83412 | -1.31542 | 263 ft | 14 kts | 240° |
| 2026-05-05 15:39 | 51.83340 | -1.31636 | 263 ft | 14 kts | 198° |
| 2026-05-05 15:39 | 51.83243 | -1.31633 | 263 ft | 14 kts | 155° |
| 2026-05-05 15:40 | 51.83152 | -1.31563 | 263 ft | 14 kts | 154° |
| 2026-05-05 15:40 | 51.83091 | -1.31523 | 263 ft | 14 kts | 171° |
| 2026-05-05 15:40 | 51.83026 | -1.31602 | 263 ft | 14 kts | 261° |
| 2026-05-05 15:40 | 51.83010 | -1.31775 | 263 ft | 17 kts | 261° |
| 2026-05-05 15:41 | 51.82991 | -1.31967 | 263 ft | 16 kts | 261° |
| 2026-05-05 15:41 | 51.83007 | -1.32169 | 264 ft | 8 kts | 307° |
| 2026-05-05 15:41 | 51.83041 | -1.32194 | 265 ft | 7 kts | 1° |
| 2026-05-05 15:41 | 51.83048 | -1.32192 | 265 ft | 0 kts | 9° |
| 2026-05-05 15:42 | 51.83203 | -1.32145 | 263 ft | 71 kts | 10° |
| 2026-05-05 15:42 | 51.83974 | -1.31917 | 473 ft | 140 kts | 9° |
| 2026-05-05 15:42 | 51.85105 | -1.31655 | 1165 ft | 193 kts | 7° |
| 2026-05-05 15:42 | 51.86525 | -1.31502 | 2423 ft | 216 kts | 357° |
| 2026-05-05 15:43 | 51.87928 | -1.32237 | 3652 ft | 219 kts | 338° |
| 2026-05-05 15:43 | 51.89503 | -1.33122 | 4701 ft | 252 kts | 345° |
| 2026-05-05 15:43 | 51.91191 | -1.33925 | 6514 ft | 254 kts | 343° |
| 2026-05-05 15:43 | 51.92898 | -1.34881 | 8105 ft | 264 kts | 340° |
| 2026-05-05 15:44 | 51.94642 | -1.35909 | 9856 ft | 270 kts | 340° |
| 2026-05-05 15:44 | 51.96496 | -1.36957 | 11162 ft | 295 kts | 340° |
| 2026-05-05 15:44 | 51.98558 | -1.37813 | 12462 ft | 315 kts | 354° |
| 2026-05-05 15:44 | 52.00769 | -1.37619 | 14155 ft | 325 kts | 6° |
| 2026-05-05 15:45 | 52.03043 | -1.37092 | 15618 ft | 333 kts | 6° |
| 2026-05-05 15:45 | 52.05378 | -1.36698 | 17193 ft | 340 kts | 2° |
| 2026-05-05 15:45 | 52.07769 | -1.36556 | 18587 ft | 348 kts | 359° |
| 2026-05-05 15:45 | 52.10197 | -1.36426 | 19674 ft | 357 kts | 1° |
| 2026-05-05 15:46 | 52.12700 | -1.36170 | 20713 ft | 365 kts | 2° |
| 2026-05-05 15:46 | 52.15261 | -1.35879 | 21715 ft | 372 kts | 1° |
| 2026-05-05 15:46 | 52.17930 | -1.35630 | 21986 ft | 401 kts | 1° |
| 2026-05-05 15:46 | 52.20818 | -1.35393 | 22010 ft | 428 kts | 1° |
| 2026-05-05 15:47 | 52.23830 | -1.35110 | 22013 ft | 435 kts | 2° |
| 2026-05-05 15:47 | 52.26850 | -1.34802 | 22008 ft | 432 kts | 2° |
| 2026-05-05 15:47 | 52.29847 | -1.34514 | 21996 ft | 430 kts | 1° |
| 2026-05-05 15:47 | 52.32837 | -1.34244 | 21993 ft | 430 kts | 1° |
| 2026-05-05 15:48 | 52.35819 | -1.33967 | 21991 ft | 430 kts | 1° |
| 2026-05-05 15:48 | 52.38813 | -1.33678 | 21987 ft | 430 kts | 1° |
| 2026-05-05 15:48 | 52.41806 | -1.33390 | 21985 ft | 431 kts | 1° |
| 2026-05-05 15:48 | 52.44801 | -1.33108 | 21988 ft | 431 kts | 1° |
| 2026-05-05 15:49 | 52.47758 | -1.32829 | 21994 ft | 431 kts | 1° |
| 2026-05-05 15:49 | 52.50756 | -1.32543 | 21995 ft | 432 kts | 1° |
| 2026-05-05 15:49 | 52.53756 | -1.32255 | 21998 ft | 432 kts | 1° |
| 2026-05-05 15:49 | 52.56760 | -1.31969 | 21999 ft | 432 kts | 1° |
| 2026-05-05 15:50 | 52.59761 | -1.31682 | 21855 ft | 432 kts | 1° |
| 2026-05-05 15:50 | 52.62746 | -1.31396 | 21308 ft | 425 kts | 1° |
| 2026-05-05 15:50 | 52.65653 | -1.31145 | 20753 ft | 412 kts | 359° |
| 2026-05-05 15:50 | 52.68468 | -1.31502 | 20218 ft | 400 kts | 348° |
| 2026-05-05 15:51 | 52.71131 | -1.32620 | 20000 ft | 391 kts | 339° |
| 2026-05-05 15:51 | 52.73666 | -1.34446 | 20001 ft | 405 kts | 329° |
| 2026-05-05 15:51 | 52.76100 | -1.36880 | 20013 ft | 411 kts | 326° |
| 2026-05-05 15:51 | 52.78527 | -1.39359 | 19748 ft | 408 kts | 326° |
| 2026-05-05 15:52 | 52.80913 | -1.41787 | 19380 ft | 396 kts | 326° |
| 2026-05-05 15:52 | 52.83228 | -1.44153 | 19012 ft | 387 kts | 325° |
| 2026-05-05 15:52 | 52.85497 | -1.46485 | 18651 ft | 382 kts | 325° |
| 2026-05-05 15:52 | 52.87759 | -1.48810 | 18259 ft | 383 kts | 325° |
| 2026-05-05 15:53 | 52.90000 | -1.51111 | 17723 ft | 384 kts | 326° |
| 2026-05-05 15:53 | 52.92264 | -1.53435 | 17214 ft | 382 kts | 326° |
| 2026-05-05 15:53 | 52.94494 | -1.55729 | 16940 ft | 374 kts | 326° |
| 2026-05-05 15:53 | 52.96699 | -1.58005 | 16682 ft | 373 kts | 326° |
| 2026-05-05 15:54 | 52.98907 | -1.60288 | 16410 ft | 374 kts | 326° |
| 2026-05-05 15:54 | 53.01085 | -1.62654 | 16144 ft | 372 kts | 321° |
| 2026-05-05 15:54 | 53.02963 | -1.65563 | 15870 ft | 367 kts | 310° |
| 2026-05-05 15:54 | 53.04484 | -1.68939 | 15604 ft | 363 kts | 301° |
| 2026-05-05 15:55 | 53.05610 | -1.72671 | 15340 ft | 359 kts | 291° |
| 2026-05-05 15:55 | 53.06313 | -1.76589 | 15082 ft | 358 kts | 281° |
| 2026-05-05 15:55 | 53.06710 | -1.80672 | 14831 ft | 358 kts | 278° |
| 2026-05-05 15:55 | 53.07098 | -1.84772 | 14575 ft | 358 kts | 279° |
| 2026-05-05 15:56 | 53.07494 | -1.88858 | 14315 ft | 358 kts | 279° |
| 2026-05-05 15:56 | 53.07883 | -1.92946 | 14055 ft | 356 kts | 278° |
| 2026-05-05 15:56 | 53.08265 | -1.97013 | 13796 ft | 355 kts | 278° |
| 2026-05-05 15:56 | 53.08645 | -2.01061 | 13521 ft | 354 kts | 279° |
| 2026-05-05 15:57 | 53.09025 | -2.05099 | 13270 ft | 352 kts | 279° |
| 2026-05-05 15:57 | 53.09402 | -2.09129 | 13015 ft | 352 kts | 279° |
| 2026-05-05 15:57 | 53.09770 | -2.13090 | 12763 ft | 351 kts | 279° |
| 2026-05-05 15:57 | 53.10142 | -2.17107 | 12509 ft | 350 kts | 279° |
| 2026-05-05 15:58 | 53.10511 | -2.21102 | 12255 ft | 348 kts | 279° |
| 2026-05-05 15:58 | 53.10878 | -2.25080 | 12005 ft | 347 kts | 279° |
| 2026-05-05 15:58 | 53.11242 | -2.29056 | 11754 ft | 346 kts | 279° |
| 2026-05-05 15:58 | 53.11596 | -2.32943 | 11505 ft | 332 kts | 279° |
| 2026-05-05 15:59 | 53.11932 | -2.36626 | 11265 ft | 311 kts | 279° |
| 2026-05-05 15:59 | 53.12243 | -2.40067 | 11045 ft | 291 kts | 279° |
| 2026-05-05 15:59 | 53.12537 | -2.43307 | 10837 ft | 276 kts | 279° |
| 2026-05-05 15:59 | 53.12819 | -2.46441 | 10641 ft | 273 kts | 279° |
| 2026-05-05 16:00 | 53.13099 | -2.49546 | 10449 ft | 278 kts | 279° |
| 2026-05-05 16:00 | 53.13387 | -2.52756 | 10256 ft | 283 kts | 279° |
| 2026-05-05 16:00 | 53.13677 | -2.56010 | 10052 ft | 283 kts | 280° |
| 2026-05-05 16:00 | 53.13965 | -2.59193 | 10021 ft | 274 kts | 280° |
| 2026-05-05 16:01 | 53.14276 | -2.62324 | 10021 ft | 275 kts | 281° |
| 2026-05-05 16:01 | 53.14591 | -2.65491 | 10027 ft | 279 kts | 281° |
| 2026-05-05 16:01 | 53.14896 | -2.68685 | 10032 ft | 281 kts | 281° |
| 2026-05-05 16:01 | 53.15201 | -2.71891 | 10031 ft | 279 kts | 281° |
| 2026-05-05 16:02 | 53.15502 | -2.75075 | 10025 ft | 278 kts | 279° |
| 2026-05-05 16:02 | 53.15806 | -2.78253 | 10028 ft | 277 kts | 281° |
| 2026-05-05 16:02 | 53.16110 | -2.81409 | 10048 ft | 276 kts | 280° |
| 2026-05-05 16:02 | 53.16407 | -2.84566 | 10051 ft | 276 kts | 281° |
| 2026-05-05 16:03 | 53.16705 | -2.87722 | 10046 ft | 275 kts | 281° |
| 2026-05-05 16:03 | 53.17005 | -2.90927 | 9787 ft | 284 kts | 280° |
| 2026-05-05 16:03 | 53.17315 | -2.94210 | 9419 ft | 286 kts | 281° |
| 2026-05-05 16:03 | 53.17616 | -2.97444 | 9050 ft | 278 kts | 281° |
| 2026-05-05 16:04 | 53.17904 | -3.00534 | 8687 ft | 268 kts | 279° |
| 2026-05-05 16:04 | 53.18186 | -3.03558 | 8338 ft | 260 kts | 279° |
| 2026-05-05 16:04 | 53.18460 | -3.06508 | 7996 ft | 255 kts | 280° |
| 2026-05-05 16:04 | 53.18726 | -3.09399 | 7661 ft | 249 kts | 280° |
| 2026-05-05 16:05 | 53.18989 | -3.12248 | 7342 ft | 247 kts | 281° |
| 2026-05-05 16:05 | 53.19268 | -3.15075 | 7050 ft | 245 kts | 285° |
| 2026-05-05 16:05 | 53.20115 | -3.17439 | 7044 ft | 237 kts | 320° |
| 2026-05-05 16:05 | 53.21602 | -3.18560 | 7038 ft | 240 kts | 353° |
| 2026-05-05 16:06 | 53.23253 | -3.18097 | 7043 ft | 247 kts | 25° |
| 2026-05-05 16:06 | 53.24586 | -3.16288 | 6963 ft | 251 kts | 45° |
| 2026-05-05 16:06 | 53.25710 | -3.14093 | 6737 ft | 251 kts | 49° |
| 2026-05-05 16:06 | 53.26797 | -3.11863 | 6616 ft | 245 kts | 49° |
| 2026-05-05 16:07 | 53.27856 | -3.09667 | 6493 ft | 240 kts | 49° |
| 2026-05-05 16:07 | 53.28894 | -3.07496 | 6360 ft | 239 kts | 50° |
| 2026-05-05 16:07 | 53.29959 | -3.05339 | 6235 ft | 241 kts | 50° |
| 2026-05-05 16:07 | 53.31054 | -3.03212 | 6110 ft | 241 kts | 50° |
| 2026-05-05 16:08 | 53.32149 | -3.01103 | 6001 ft | 239 kts | 49° |
| 2026-05-05 16:08 | 53.33228 | -2.99020 | 5995 ft | 236 kts | 50° |
| 2026-05-05 16:08 | 53.34303 | -2.96944 | 5996 ft | 236 kts | 50° |
| 2026-05-05 16:08 | 53.35383 | -2.94864 | 5997 ft | 237 kts | 50° |
| 2026-05-05 16:09 | 53.36468 | -2.92767 | 5997 ft | 239 kts | 50° |
| 2026-05-05 16:09 | 53.37540 | -2.90690 | 5998 ft | 233 kts | 50° |
| 2026-05-05 16:09 | 53.38582 | -2.88678 | 5868 ft | 230 kts | 50° |
| 2026-05-05 16:09 | 53.39631 | -2.86653 | 5734 ft | 230 kts | 49° |
| 2026-05-05 16:10 | 53.40667 | -2.84615 | 5600 ft | 228 kts | 54° |
| 2026-05-05 16:10 | 53.41207 | -2.82159 | 5451 ft | 226 kts | 81° |
| 2026-05-05 16:10 | 53.41352 | -2.79546 | 5303 ft | 224 kts | 85° |
| 2026-05-05 16:10 | 53.41460 | -2.76908 | 5110 ft | 228 kts | 85° |
| 2026-05-05 16:11 | 53.41561 | -2.74265 | 4907 ft | 225 kts | 85° |
| 2026-05-05 16:11 | 53.41841 | -2.66504 | 4262 ft | 223 kts | 85° |
| 2026-05-05 16:12 | 53.41925 | -2.63907 | 4098 ft | 221 kts | 85° |
| 2026-05-05 16:12 | 53.42067 | -2.58797 | 3870 ft | 224 kts | 85° |
| 2026-05-05 16:13 | 53.39537 | -2.53259 | 3423 ft | 222 kts | 174° |
| 2026-05-05 16:13 | 53.38016 | -2.53200 | 3295 ft | 215 kts | 179° |
| 2026-05-05 16:13 | 53.36559 | -2.53210 | 3161 ft | 203 kts | 180° |
| 2026-05-05 16:14 | 53.34435 | -2.55285 | 2965 ft | 184 kts | 256° |
| 2026-05-05 16:14 | 53.34506 | -2.59237 | 2945 ft | 165 kts | 268° |
| 2026-05-05 16:15 | 53.34368 | -2.63033 | 2555 ft | 160 kts | 272° |
| 2026-05-05 16:15 | 53.34200 | -2.66692 | 2104 ft | 156 kts | 269° |
| 2026-05-05 16:16 | 53.34033 | -2.70301 | 1690 ft | 154 kts | 269° |
| 2026-05-05 16:16 | 53.33892 | -2.73433 | 1304 ft | 127 kts | 271° |
| 2026-05-05 16:17 | 53.33761 | -2.76293 | 964 ft | 119 kts | 271° |
| 2026-05-05 16:17 | 53.33691 | -2.77622 | 790 ft | 111 kts | 271° |
| 2026-05-05 16:18 | 53.33568 | -2.80326 | 481 ft | 120 kts | 268° |
| 2026-05-05 16:18 | 53.33509 | -2.81688 | 309 ft | 116 kts | 267° |
| 2026-05-05 16:18 | 53.33401 | -2.84184 | 71 ft | 81 kts | 266° |
| 2026-05-05 16:19 | 53.33373 | -2.84809 | 72 ft | 40 kts | 265° |
| 2026-05-05 16:19 | 53.33361 | -2.85195 | 74 ft | 28 kts | 275° |
| 2026-05-05 16:19 | 53.33463 | -2.85694 | 75 ft | 18 kts | 292° |
| 2026-05-05 16:20 | 53.33482 | -2.86041 | 81 ft | 17 kts | 264° |
| 2026-05-05 16:20 | 53.33490 | -2.86309 | 81 ft | 8 kts | 332° |
| 2026-05-05 16:21 | 53.33614 | -2.86367 | 80 ft | 8 kts | 333° |
| 2026-05-05 16:22 | 53.33630 | -2.86322 | 81 ft | 0 kts | 144° |